Quick Links (Output Below):   Max & Min Temps   /   Climate Reports   /   Zone Forecasts
River Forecasts   /   Forestry Forecasts   /   Aviation Forecasts   /   Radars   /   Features

Terminal Aerodrome Forecast (Texarkana)

Pick a Site:
Arkadelphia | El Dorado | Fayetteville | Fort Smith | Harrison | Highfill | Hot Springs | Jonesboro
Little Rock | Monticello | Mountain Home | Pine Bluff | Texarkana
 Forecast 

KTXK 010523Z 0106/0206 04006KT P6SM SKC
     FM011400 05004KT P6SM SKC
     FM020000 12004KT P6SM SKC=


 Latest METARs (Observations) 
How to Decode METARs
10Z KTXK 010953Z AUTO 05006KT 10SM CLR 03/M03 A3039 RMK AO2 SLP291
         T00281028
         
09Z KTXK 010853Z AUTO 06004KT 10SM CLR 02/M02 A3039 RMK AO2 SLP289
         T00221022 51008
         
08Z KTXK 010753Z AUTO 05004KT 10SM CLR 04/M03 A3038 RMK AO2 SLP287
         T00391028
         
07Z KTXK 010653Z AUTO 05005KT 10SM CLR 04/M02 A3037 RMK AO2 SLP281
         T00441022
         
06Z KTXK 010553Z AUTO 05007KT 10SM CLR 07/M02 A3036 RMK AO2 SLP280
         T00721022 10139 20072 402000072 51007
         
05Z KTXK 010453Z AUTO 04006KT 10SM CLR 08/00 A3036 RMK AO2 SLP279
         T00780000
         
04Z KTXK 010353Z AUTO 03005KT 10SM CLR 08/03 A3035 RMK AO2 SLP275
         T00830028
         
03Z KTXK 010253Z AUTO 35005KT 10SM CLR 09/04 A3034 RMK AO2 SLP272
         T00940039 51024
         
02Z KTXK 010153Z 34005KT 10SM CLR 11/04 A3032 RMK AO2 SLP264
         T01110039
         
01Z KTXK 010053Z 33006KT 10SM CLR 13/04 A3029 RMK AO2 SLP257
         T01280039
         
***** Today's Observations (Above) *****


Back to Main Page
http://www.srh.noaa.gov/lzk/qfcst.php

USA.gov is the U.S. government's official web portal to all federal, state and local government web resources and services.